createdAt,value
2018-06-19T00:01:26.986Z,97.40
2018-06-19T00:03:57.417Z,97.40
2018-06-19T00:06:27.864Z,97.80
2018-06-19T00:08:58.357Z,98.00
2018-06-19T00:11:28.884Z,98.20
2018-06-19T00:13:59.378Z,98.00
2018-06-19T00:16:29.891Z,98.40
2018-06-19T00:19:01.485Z,98.60
2018-06-19T00:21:36.927Z,98.70
2018-06-19T00:24:07.518Z,98.80
2018-06-19T00:26:37.964Z,99.00
2018-06-19T00:29:08.378Z,99.20
2018-06-19T00:31:38.871Z,99.30
2018-06-19T00:34:09.349Z,99.60
2018-06-19T00:36:39.786Z,99.50
2018-06-19T00:39:11.756Z,99.60
2018-06-19T00:41:42.698Z,99.60
2018-06-19T00:44:14.018Z,99.60
2018-06-19T00:46:49.227Z,99.50
2018-06-19T00:49:20.658Z,99.50
2018-06-19T00:51:51.071Z,99.50
2018-06-19T00:54:21.778Z,99.50
2018-06-19T00:56:57.865Z,99.50
2018-06-19T00:59:28.374Z,99.60
2018-06-19T01:02:01.009Z,99.50
2018-06-19T01:04:31.549Z,99.60
2018-06-19T01:07:02.614Z,99.50
2018-06-19T01:09:33.037Z,99.50
2018-06-19T01:12:03.633Z,99.50
2018-06-19T01:14:34.695Z,99.40
2018-06-19T01:17:05.201Z,99.50
2018-06-19T01:19:35.612Z,99.50
2018-06-19T01:22:06.121Z,99.50
2018-06-19T01:24:36.623Z,99.40
2018-06-19T01:27:07.119Z,99.40
2018-06-19T01:29:37.583Z,99.40
2018-06-19T01:32:08.180Z,99.60
2018-06-19T01:34:38.644Z,99.90
2018-06-19T01:37:09.058Z,99.70
2018-06-19T01:39:39.534Z,99.40
2018-06-19T01:42:10.045Z,99.50
2018-06-19T01:44:40.524Z,99.60
2018-06-19T01:47:11.294Z,99.50
2018-06-19T01:49:41.708Z,99.50
2018-06-19T01:52:12.236Z,99.70
2018-06-19T01:54:42.682Z,99.80
2018-06-19T01:57:13.115Z,99.70
2018-06-19T01:59:43.555Z,99.50
2018-06-19T02:02:13.933Z,99.60
2018-06-19T02:04:44.352Z,99.70
2018-06-19T02:07:14.753Z,99.70
2018-06-19T02:09:45.256Z,99.70
2018-06-19T02:12:15.645Z,99.70
2018-06-19T02:14:46.724Z,99.60
2018-06-19T02:17:17.123Z,99.70
2018-06-19T02:19:47.574Z,99.70
2018-06-19T02:22:17.910Z,99.90
2018-06-19T02:24:48.323Z,99.90
2018-06-19T02:27:18.738Z,99.80
2018-06-19T02:29:49.245Z,99.90
2018-06-19T02:32:19.641Z,99.90
2018-06-19T02:34:50.067Z,99.80
2018-06-19T02:37:20.504Z,99.90
2018-06-19T02:39:50.936Z,99.90
2018-06-19T02:42:21.439Z,99.90
2018-06-19T02:44:51.964Z,99.90
2018-06-19T02:47:22.381Z,99.90
2018-06-19T02:49:52.784Z,99.90
2018-06-19T02:52:23.321Z,99.90
2018-06-19T02:54:53.770Z,99.90
2018-06-19T02:57:24.165Z,99.90
2018-06-19T02:59:54.620Z,99.90
2018-06-19T03:02:25.167Z,99.90
2018-06-19T03:04:55.602Z,99.90
2018-06-19T03:07:26.526Z,99.90
2018-06-19T03:09:57.573Z,99.90
2018-06-19T03:12:28.056Z,99.90
2018-06-19T03:14:58.526Z,99.90
2018-06-19T03:17:28.992Z,99.90
2018-06-19T03:19:59.379Z,99.90
2018-06-19T03:22:29.865Z,99.90
2018-06-19T03:25:00.273Z,99.90
2018-06-19T03:27:30.723Z,99.90
2018-06-19T03:30:01.153Z,99.90
2018-06-19T03:32:31.540Z,99.90
2018-06-19T03:35:01.951Z,99.90
2018-06-19T03:37:33.796Z,99.90
2018-06-19T03:40:04.303Z,99.90
2018-06-19T03:42:34.799Z,99.90
2018-06-19T03:45:05.623Z,99.90
2018-06-19T03:47:36.052Z,99.90
2018-06-19T03:50:07.813Z,99.90
2018-06-19T03:52:38.470Z,99.90
2018-06-19T03:55:08.979Z,99.90
2018-06-19T03:57:39.571Z,99.90
2018-06-19T04:00:10.091Z,99.90
2018-06-19T04:02:40.558Z,99.90
2018-06-19T04:05:11.026Z,99.90
2018-06-19T04:07:41.486Z,99.90
2018-06-19T04:10:11.932Z,99.90
2018-06-19T04:12:42.401Z,99.90
2018-06-19T04:15:12.806Z,99.90
2018-06-19T04:17:43.244Z,99.90
2018-06-19T04:20:13.771Z,99.90
2018-06-19T04:22:44.492Z,99.90
2018-06-19T04:25:15.010Z,99.90
2018-06-19T04:27:45.439Z,99.90
2018-06-19T04:30:15.957Z,99.90
2018-06-19T04:32:46.361Z,99.90
2018-06-19T04:35:16.862Z,99.90
2018-06-19T04:37:47.300Z,99.90
2018-06-19T04:40:17.669Z,99.90
2018-06-19T04:42:48.267Z,99.90
2018-06-19T04:45:18.700Z,99.90
2018-06-19T04:47:49.285Z,99.90
2018-06-19T04:50:19.685Z,99.90
2018-06-19T04:52:50.139Z,99.90
2018-06-19T04:55:21.292Z,99.90
2018-06-19T04:57:51.882Z,99.90
2018-06-19T05:00:22.343Z,99.90
2018-06-19T05:02:52.757Z,99.90
2018-06-19T05:05:23.159Z,98.90
2018-06-19T05:07:53.963Z,97.40
2018-06-19T05:10:24.397Z,96.10
2018-06-19T05:12:54.836Z,95.60
2018-06-19T05:15:25.391Z,95.40
2018-06-19T05:17:55.810Z,94.30
2018-06-19T05:20:26.326Z,94.10
2018-06-19T05:22:56.757Z,93.40
2018-06-19T05:25:27.340Z,92.70
2018-06-19T05:27:57.723Z,92.40
2018-06-19T05:30:28.254Z,91.90
2018-06-19T05:32:58.666Z,91.80
2018-06-19T05:35:29.095Z,91.00
2018-06-19T05:37:59.554Z,90.70
2018-06-19T05:40:30.285Z,90.50
2018-06-19T05:43:00.983Z,90.20
2018-06-19T05:45:31.431Z,90.70
2018-06-19T05:48:01.858Z,90.90
2018-06-19T05:50:32.395Z,91.30
2018-06-19T05:53:02.921Z,92.10
2018-06-19T05:55:33.329Z,92.20
2018-06-19T05:58:03.788Z,92.80
2018-06-19T06:00:34.199Z,92.90
2018-06-19T06:03:04.607Z,93.10
2018-06-19T06:05:35.121Z,93.70
2018-06-19T06:08:05.662Z,94.00
2018-06-19T06:10:36.920Z,94.30
2018-06-19T06:13:12.932Z,94.40
2018-06-19T06:15:43.354Z,94.40
2018-06-19T06:18:13.917Z,94.80
2018-06-19T06:20:55.240Z,94.80
2018-06-19T06:23:57.919Z,94.70
2018-06-19T06:26:31.332Z,94.90
2018-06-19T06:29:11.874Z,95.00
2018-06-19T06:31:59.754Z,94.80
2018-06-19T06:34:47.583Z,94.80
2018-06-19T06:37:46.380Z,95.00
2018-06-19T06:40:43.585Z,95.40
2018-06-19T06:43:19.978Z,95.80
2018-06-19T06:45:50.529Z,95.70
2018-06-19T06:48:21.105Z,96.20
2018-06-19T06:50:51.617Z,96.20
2018-06-19T06:53:22.399Z,96.10
2018-06-19T06:55:52.848Z,96.00
2018-06-19T06:58:23.312Z,96.10
2018-06-19T07:03:24.266Z,96.30
2018-06-19T07:05:54.700Z,96.20
2018-06-19T07:08:25.141Z,95.10
2018-06-19T07:10:55.608Z,94.90
2018-06-19T07:13:26.087Z,94.50
2018-06-19T07:15:56.502Z,94.50
2018-06-19T07:18:27.112Z,94.50
2018-06-19T07:20:57.535Z,94.70
2018-06-19T07:23:27.976Z,94.70
2018-06-19T07:25:58.498Z,94.80
2018-06-19T07:28:28.990Z,94.30
2018-06-19T07:30:59.589Z,94.50
2018-06-19T07:33:30.095Z,94.30
2018-06-19T07:36:00.592Z,94.30
2018-06-19T07:38:31.206Z,94.10
2018-06-19T07:41:03.064Z,93.20
2018-06-19T07:43:33.534Z,92.60
2018-06-19T07:46:03.997Z,92.50
2018-06-19T07:48:34.520Z,92.40
2018-06-19T07:51:04.960Z,93.00
2018-06-19T07:53:35.419Z,92.40
2018-06-19T07:56:06.224Z,92.30
2018-06-19T07:58:37.190Z,92.10
2018-06-19T08:01:07.548Z,91.90
2018-06-19T08:03:37.941Z,92.80
2018-06-19T08:06:08.422Z,92.10
2018-06-19T08:08:38.883Z,91.50
2018-06-19T08:11:09.286Z,92.00
2018-06-19T08:13:39.691Z,91.80
2018-06-19T08:16:10.111Z,91.90
2018-06-19T08:21:10.975Z,92.60
2018-06-19T08:23:41.643Z,93.00
2018-06-19T08:26:12.111Z,93.20
2018-06-19T08:28:42.560Z,93.00
2018-06-19T08:31:13.085Z,93.60
2018-06-19T08:33:43.515Z,93.70
2018-06-19T08:36:14.202Z,94.00
2018-06-19T08:38:44.649Z,94.30
2018-06-19T08:41:15.132Z,93.70
2018-06-19T08:43:45.542Z,94.00
2018-06-19T08:46:16.137Z,93.30
2018-06-19T08:48:47.443Z,93.60
2018-06-19T08:51:17.851Z,93.70
2018-06-19T08:53:49.225Z,93.10
2018-06-19T08:56:19.703Z,92.80
2018-06-19T08:58:50.234Z,93.60
2018-06-19T09:01:20.754Z,93.10
2018-06-19T09:03:51.209Z,93.10
2018-06-19T09:06:21.742Z,93.60
2018-06-19T09:08:52.248Z,92.90
2018-06-19T09:11:22.632Z,92.90
2018-06-19T09:13:53.118Z,93.00
2018-06-19T09:16:23.553Z,92.80
2018-06-19T09:18:54.081Z,93.20
2018-06-19T09:21:25.159Z,94.10
2018-06-19T09:23:55.941Z,93.90
2018-06-19T09:26:26.456Z,93.70
2018-06-19T09:28:56.954Z,93.10
2018-06-19T09:31:27.570Z,93.00
2018-06-19T09:33:57.909Z,93.00
2018-06-19T09:36:28.449Z,93.10
2018-06-19T09:38:59.720Z,92.90
2018-06-19T09:41:30.208Z,92.30
2018-06-19T09:44:00.639Z,92.30
2018-06-19T09:46:31.139Z,91.90
2018-06-19T09:49:02.142Z,92.10
2018-06-19T09:51:32.806Z,91.60
2018-06-19T09:54:03.378Z,91.70
2018-06-19T09:56:34.263Z,91.50
2018-06-19T09:59:05.108Z,91.90
2018-06-19T10:01:35.607Z,92.40
2018-06-19T10:04:06.194Z,91.70
2018-06-19T10:06:36.610Z,92.00
2018-06-19T10:09:09.972Z,92.00
2018-06-19T10:11:40.506Z,91.60
2018-06-19T10:14:10.923Z,92.30
2018-06-19T10:19:11.538Z,92.20
2018-06-19T10:21:42.150Z,92.00
2018-06-19T10:24:12.988Z,91.80
2018-06-19T10:26:43.553Z,92.20
2018-06-19T10:29:14.012Z,91.70
2018-06-19T10:31:44.439Z,92.40
2018-06-19T10:34:14.912Z,92.40
2018-06-19T10:36:45.435Z,92.00
2018-06-19T10:39:15.949Z,92.20
2018-06-19T10:41:46.326Z,92.20
2018-06-19T10:44:16.760Z,92.10
2018-06-19T10:46:47.270Z,91.10
2018-06-19T10:49:17.734Z,90.70
2018-06-19T10:51:48.130Z,90.90
2018-06-19T10:54:18.643Z,89.90
2018-06-19T10:56:49.111Z,90.40
2018-06-19T10:59:20.232Z,90.20
2018-06-19T11:01:50.757Z,87.90
2018-06-19T11:04:21.302Z,88.80
2018-06-19T11:06:51.776Z,88.30
2018-06-19T11:09:22.269Z,89.00
2018-06-19T11:11:52.748Z,89.80
2018-06-19T11:14:23.180Z,87.80
2018-06-19T11:16:53.652Z,88.70
2018-06-19T11:21:54.033Z,86.50
2018-06-19T11:24:24.437Z,87.50
2018-06-19T11:26:54.944Z,88.60
2018-06-19T11:29:25.385Z,88.20
2018-06-19T11:31:56.412Z,90.30
2018-06-19T11:34:26.847Z,89.00
2018-06-19T11:36:57.363Z,89.10
2018-06-19T11:39:27.710Z,90.10
2018-06-19T11:53:13.276Z,90.20
2018-06-19T11:55:43.805Z,90.10
2018-06-19T11:58:14.359Z,90.40
2018-06-19T12:00:44.813Z,90.00
2018-06-19T12:03:15.291Z,89.30
2018-06-19T12:05:46.213Z,89.80
2018-06-19T12:08:16.727Z,88.40
2018-06-19T12:10:47.192Z,87.40
2018-06-19T12:13:17.637Z,86.70
2018-06-19T12:15:48.013Z,84.50
2018-06-19T12:18:19.082Z,86.70
2018-06-19T12:20:49.806Z,86.30
2018-06-19T12:23:20.249Z,87.90
2018-06-19T12:25:50.693Z,85.80
2018-06-19T12:28:21.127Z,87.30
2018-06-19T12:30:51.611Z,86.30
2018-06-19T12:33:22.166Z,87.40
2018-06-19T12:35:52.679Z,86.70
2018-06-19T12:38:23.260Z,86.60
2018-06-19T12:40:53.714Z,86.70
2018-06-19T12:45:54.187Z,84.90
2018-06-19T12:48:24.664Z,86.10
2018-06-19T12:52:12.605Z,85.10
2018-06-19T12:55:26.354Z,86.60
2018-06-19T12:57:56.790Z,87.70
2018-06-19T13:00:27.211Z,86.80
2018-06-19T13:03:14.479Z,86.00
2018-06-19T13:06:01.995Z,84.50
2018-06-19T13:08:32.447Z,84.40
2018-06-19T13:11:03.772Z,84.00
2018-06-19T13:13:51.901Z,85.40
2018-06-19T13:16:39.194Z,86.90
2018-06-19T13:19:27.472Z,86.20
2018-06-19T13:21:57.988Z,85.90
2018-06-19T13:26:58.497Z,87.70
2018-06-19T13:29:49.596Z,87.00
2018-06-19T13:32:21.007Z,87.00
2018-06-19T13:34:52.151Z,85.90
2018-06-19T13:37:22.617Z,87.60
2018-06-19T13:41:15.994Z,87.20
2018-06-19T13:44:05.542Z,86.80
2018-06-19T13:46:36.737Z,86.60
2018-06-19T13:49:07.337Z,87.30
2018-06-19T13:51:38.006Z,87.70
2018-06-19T13:54:08.599Z,87.30
2018-06-19T13:57:34.404Z,87.70
2018-06-19T14:00:08.531Z,88.00
2018-06-19T14:02:38.994Z,87.00
2018-06-19T14:05:10.370Z,87.60
2018-06-19T14:07:57.864Z,86.90
2018-06-19T14:10:45.517Z,88.00
2018-06-19T14:13:16.918Z,87.70
2018-06-19T14:15:51.334Z,89.90
2018-06-19T14:18:22.195Z,87.80
2018-06-19T14:20:53.342Z,87.90
2018-06-19T14:23:23.851Z,88.10
2018-06-19T14:25:54.380Z,88.50
2018-06-19T14:28:24.868Z,89.60
2018-06-19T14:30:55.338Z,89.90
2018-06-19T14:33:25.991Z,90.00
2018-06-19T14:35:56.453Z,89.60
2018-06-19T14:38:26.908Z,88.30
2018-06-19T14:40:57.338Z,87.40
2018-06-19T14:43:27.813Z,88.70
2018-06-19T14:45:58.396Z,88.10
2018-06-19T14:48:29.502Z,88.70
2018-06-19T14:51:00.099Z,89.00
2018-06-19T14:53:30.674Z,89.50
2018-06-19T14:56:01.178Z,87.80
2018-06-19T14:58:31.645Z,88.90
2018-06-19T15:01:02.098Z,88.20
2018-06-19T15:03:32.516Z,88.10
2018-06-19T15:06:02.994Z,88.40
2018-06-19T15:08:33.410Z,89.00
2018-06-19T15:11:03.823Z,88.10
2018-06-19T15:13:34.282Z,89.10
2018-06-19T15:16:04.924Z,89.30
2018-06-19T15:18:35.436Z,87.40
2018-06-19T15:21:05.890Z,89.30
2018-06-19T15:23:36.329Z,88.70
2018-06-19T15:26:06.724Z,88.10
2018-06-19T15:28:37.116Z,88.00
2018-06-19T15:31:07.640Z,88.40
2018-06-19T15:33:38.053Z,87.60
2018-06-19T15:36:08.416Z,89.20
2018-06-19T15:38:38.827Z,88.30
2018-06-19T15:41:09.280Z,87.70
2018-06-19T15:43:39.806Z,88.50
2018-06-19T15:46:10.284Z,88.70
2018-06-19T15:48:40.841Z,88.40
2018-06-19T15:51:11.288Z,87.60
2018-06-19T15:53:41.873Z,88.10
2018-06-19T15:56:12.407Z,87.80
2018-06-19T15:58:43.028Z,87.50
2018-06-19T16:01:13.528Z,87.90
2018-06-19T16:03:44.339Z,87.70
2018-06-19T16:06:14.779Z,87.50
2018-06-19T16:08:45.186Z,87.60
2018-06-19T16:11:15.821Z,87.00
2018-06-19T16:13:46.432Z,88.40
2018-06-19T16:16:16.864Z,87.70
2018-06-19T16:18:47.305Z,87.70
2018-06-19T16:21:17.781Z,86.90
2018-06-19T16:23:48.409Z,87.50
2018-06-19T16:26:18.845Z,87.50
2018-06-19T16:28:49.313Z,87.80
2018-06-19T16:31:19.867Z,87.20
2018-06-19T16:33:50.340Z,87.40
2018-06-19T16:36:20.849Z,87.20
2018-06-19T16:38:52.280Z,87.40
2018-06-19T16:41:22.732Z,87.90
2018-06-19T16:43:53.193Z,87.20
2018-06-19T16:46:23.659Z,87.50
2018-06-19T16:48:54.116Z,87.40
2018-06-19T16:51:25.196Z,86.70
2018-06-19T16:53:56.408Z,86.80
2018-06-19T16:56:26.907Z,87.40
2018-06-19T16:58:57.352Z,87.50
2018-06-19T17:01:27.807Z,87.70
2018-06-19T17:03:58.984Z,87.20
2018-06-19T17:06:29.408Z,87.20
2018-06-19T17:08:59.823Z,86.60
2018-06-19T17:11:30.368Z,87.20
2018-06-19T17:14:00.849Z,87.70
2018-06-19T17:16:31.289Z,88.10
2018-06-19T17:19:01.869Z,87.70
2018-06-19T17:21:32.371Z,88.00
2018-06-19T17:24:02.900Z,87.80
2018-06-19T17:26:33.429Z,87.40
2018-06-19T17:29:03.935Z,87.70
2018-06-19T17:31:34.465Z,88.70
2018-06-19T17:34:04.926Z,88.40
2018-06-19T17:36:35.387Z,88.60
2018-06-19T17:39:09.790Z,89.10
2018-06-19T17:41:40.289Z,89.40
2018-06-19T17:44:10.753Z,89.50
2018-06-19T17:46:41.235Z,89.40
2018-06-19T17:49:11.698Z,89.40
2018-06-19T17:51:42.109Z,89.20
2018-06-19T17:54:12.697Z,90.50
2018-06-19T17:59:13.150Z,89.50
2018-06-19T18:01:43.539Z,90.00
2018-06-19T18:04:13.964Z,89.90
2018-06-19T18:06:44.421Z,90.40
2018-06-19T18:09:14.846Z,90.40
2018-06-19T18:11:45.289Z,90.60
2018-06-19T18:14:15.753Z,90.70
2018-06-19T18:16:46.233Z,90.70
2018-06-19T18:19:16.838Z,90.90
2018-06-19T18:21:47.307Z,90.90
2018-06-19T18:24:17.736Z,91.00
2018-06-19T18:26:48.268Z,91.00
2018-06-19T18:29:18.839Z,91.10
2018-06-19T18:31:49.346Z,91.40
2018-06-19T18:34:19.787Z,91.30
2018-06-19T18:36:51.201Z,91.30
2018-06-19T18:39:21.765Z,91.70
2018-06-19T18:41:52.208Z,91.90
2018-06-19T18:44:22.736Z,92.00
2018-06-19T18:46:53.337Z,92.20
2018-06-19T18:49:23.768Z,92.60
2018-06-19T18:51:54.325Z,92.60
2018-06-19T18:54:24.843Z,92.70
2018-06-19T18:56:55.277Z,92.80
2018-06-19T18:59:27.731Z,92.80
2018-06-19T19:01:58.184Z,92.90
2018-06-19T19:04:28.663Z,93.10
2018-06-19T19:06:59.060Z,93.20
2018-06-19T19:09:29.637Z,93.20
2018-06-19T19:12:00.126Z,93.50
2018-06-19T19:14:34.624Z,93.50
2018-06-19T19:19:12.304Z,93.50
2018-06-19T19:21:42.769Z,93.70
2018-06-19T19:24:13.297Z,93.90
2018-06-19T19:26:49.034Z,94.00
2018-06-19T19:29:24.793Z,94.30
2018-06-19T19:31:55.490Z,94.20
2018-06-19T19:34:25.986Z,94.30
2018-06-19T19:37:01.590Z,94.50
2018-06-19T19:39:32.063Z,94.40
2018-06-19T19:44:32.467Z,94.40
2018-06-19T19:47:08.017Z,94.50
2018-06-19T19:49:39.215Z,94.60
2018-06-19T19:52:09.849Z,94.50
2018-06-19T19:54:40.259Z,94.60
2018-06-19T19:57:15.791Z,94.60
2018-06-19T19:59:46.255Z,94.60
2018-06-19T20:02:17.240Z,94.70
2018-06-19T20:04:47.649Z,95.00
2018-06-19T20:07:18.305Z,95.00
2018-06-19T20:09:48.861Z,94.90
2018-06-19T20:12:20.357Z,95.00
2018-06-19T20:14:51.324Z,95.20
2018-06-19T20:17:22.738Z,95.30
2018-06-19T20:19:53.466Z,95.40
2018-06-19T20:22:23.870Z,95.40
2018-06-19T20:24:54.498Z,95.50
2018-06-19T20:27:24.980Z,95.70
2018-06-19T20:29:55.471Z,95.50
2018-06-19T20:32:25.920Z,95.70
2018-06-19T20:34:56.409Z,95.90
2018-06-19T20:37:27.657Z,95.80
2018-06-19T20:39:58.085Z,95.80
2018-06-19T20:42:28.497Z,95.90
2018-06-19T20:44:59.937Z,95.80
2018-06-19T20:47:30.831Z,96.00
2018-06-19T20:50:01.244Z,96.00
2018-06-19T20:52:32.765Z,96.10
2018-06-19T20:55:03.676Z,96.10
2018-06-19T20:57:34.206Z,96.30
2018-06-19T21:00:04.698Z,96.30
2018-06-19T21:02:35.141Z,96.40
2018-06-19T21:05:05.781Z,96.50
2018-06-19T21:07:36.185Z,96.50
2018-06-19T21:10:06.726Z,96.70
2018-06-19T21:12:37.151Z,96.70
2018-06-19T21:15:07.637Z,96.80
2018-06-19T21:17:38.793Z,96.90
2018-06-19T21:20:09.227Z,97.30
2018-06-19T21:22:39.666Z,97.00
2018-06-19T21:25:10.057Z,97.00
2018-06-19T21:27:40.478Z,97.20
2018-06-19T21:30:10.932Z,97.40
2018-06-19T21:32:41.408Z,97.40
2018-06-19T21:35:11.866Z,97.50
2018-06-19T21:37:42.333Z,97.50
2018-06-19T21:40:12.799Z,97.60
2018-06-19T21:42:43.284Z,97.50
2018-06-19T21:45:13.729Z,97.60
2018-06-19T21:47:44.211Z,97.60
2018-06-19T21:50:14.631Z,97.60
2018-06-19T21:52:45.024Z,97.80
2018-06-19T21:55:15.450Z,97.90
2018-06-19T21:57:45.997Z,98.00
2018-06-19T22:00:16.472Z,97.80
2018-06-19T22:02:46.932Z,98.40
2018-06-19T22:05:17.420Z,98.30
2018-06-19T22:07:47.880Z,98.40
2018-06-19T22:10:18.307Z,98.40
2018-06-19T22:12:48.701Z,98.50
2018-06-19T22:15:19.194Z,98.70
2018-06-19T22:17:49.641Z,98.80
2018-06-19T22:20:20.612Z,98.90
2018-06-19T22:22:51.019Z,98.80
2018-06-19T22:25:21.448Z,98.90
2018-06-19T22:27:51.859Z,99.20
2018-06-19T22:30:22.353Z,99.10
2018-06-19T22:32:53.410Z,99.10
2018-06-19T22:35:23.925Z,99.30
2018-06-19T22:37:54.339Z,99.40
2018-06-19T22:40:24.843Z,99.40
2018-06-19T22:42:55.254Z,99.50
2018-06-19T22:45:25.717Z,99.70
2018-06-19T22:47:56.173Z,99.90
2018-06-19T22:50:26.718Z,99.90
2018-06-19T22:52:57.222Z,99.90
2018-06-19T22:55:27.553Z,99.90
2018-06-19T22:57:58.001Z,99.90
2018-06-19T23:00:28.463Z,99.90
2018-06-19T23:03:03.238Z,99.90
2018-06-19T23:05:34.845Z,99.90
2018-06-19T23:08:05.390Z,99.90
2018-06-19T23:10:35.862Z,99.90
2018-06-19T23:13:06.318Z,99.90
2018-06-19T23:15:36.679Z,99.90
2018-06-19T23:18:07.140Z,99.90
2018-06-19T23:20:37.737Z,99.90
2018-06-19T23:23:08.232Z,99.90
2018-06-19T23:25:38.605Z,99.90
2018-06-19T23:28:08.997Z,99.90
2018-06-19T23:30:39.390Z,99.90
2018-06-19T23:33:09.888Z,99.90
2018-06-19T23:35:40.270Z,99.90
2018-06-19T23:38:10.788Z,99.90
2018-06-19T23:40:41.174Z,99.90
2018-06-19T23:43:11.588Z,99.90
2018-06-19T23:45:42.028Z,99.90
2018-06-19T23:48:13.308Z,99.90
2018-06-19T23:50:43.796Z,99.90
2018-06-19T23:53:14.251Z,99.90
2018-06-19T23:55:44.721Z,99.90
2018-06-19T23:58:15.964Z,99.90
